Albion, WA

2:42 PM PDT on October 20, 2014 (GMT -0700)
APRSWXNET Pullman WA US | Change Station
CLOSE
Current Station
Personal Weather Station
Location: Pullman, WA
Elevation: 2583 ft
Nearby Weather Stations

Elev 2583 ft 46.75 °N, 117.18 °W | Updated 56 minutes ago

Partly Cloudy
Partly Cloudy
72 °F
Feels Like 77 °F
N
3
Wind Variable Wind from WNW
Gusts 9.0 mph

Today
High -- | Low -- °F
--% Chance of Precip.
Yesterday
High -- | Low -- °F
Precip. -- in
7:13 AM 5:52 PM
Waning Crescent, 9% visible
Pressure 29.74 in
Visibility 10.0 miles
Clouds Clear
Heat Index 77 °F
Dew Point 41 °F
Humidity 33%
Rainfall 0.00 in
Snow Depth Not available.
UV 3 out of 12
Pollen 3.10 out of 12
Air Quality Not available.
Flu Activity Sporadic
METAR KPUW 202053Z AUTO 27009KT 10SM CLR 22/02 A2977 RMK AO2 SLP071 T02170022 56010

More Conditions Fewer Conditions

Pressure 29.74 in
Visibility 10.0 miles
Clouds Clear
Heat Index 77 °F
Dew Point 41 °F
Humidity 33%
Rainfall 0.00 in
Snow Depth Not available.
UV 3 out of 12
Pollen 3.10 out of 12
Air Quality Not available.
Flu Activity Sporadic
METAR KPUW 202053Z AUTO 27009KT 10SM CLR 22/02 A2977 RMK AO2 SLP071 T02170022 56010

More Conditions Fewer Conditions

10-Day Weather Forecast

Almanac

Astronomy

Oct. 20, 2014 Rise Set
Actual Time 7:13 AM PDT 5:52 PM PDT
Civil Twilight 6:43 AM PDT 6:23 PM PDT
Nautical Twilight 6:07 AM PDT 6:58 PM PDT
Astronomical Twilight 5:32 AM PDT 7:33 PM PDT
Moon 3:55 AM PDT 4:27 PM PDT
Length of Visible Light 11h 40m
Length of Day
10h 38m
Waning Crescent, 9% of the Moon is Illuminated
Today
Waning Crescent
Oct 23
New
Oct 30
First Quarter
Nov 6
Full
Nov 14
Last Quarter

Today's Extremes

State Highs State Lows

Community

WunderPhotos

Upload Photos

1,763,527 photos uploaded!

WunderBlogs® & News

Nearby

Snow Depth

Station Depth Elevation
Spruce Springs 0 in 5700 ft
Quartz Peak 1 in 4700 ft
Moses Mountain 0 in 5300 ft
Trough 0 in 5300 ft
Grouse Camp 0 in 5380 ft

Earthquake Activity

City Distance Mag. Time & Date
No recent earthquake activity has been reported nearby.
Minimum magnitude displayed is 2.5.

Coastal Water Temperatures

Place Temperature
No Stations Reporting

Nearby Weather Stations